Paradise Valley, Nevada Weather observations

Data are for 10 minute period ending at time listed.
 Day   Time   Solar   Ave.   Ave.  Ave.  Vector  Max.   Baro.   Total    
  of    of     Rad.   Air    Rel.  Wind   Wind   Wind  Press.  Precip.   
Year   Day            Temp.  Hum.  Speed  Dir.   Gust                    
2016   (PST)  Kw/m2    F      %     mph   deg.    mph    mb.     in.     
-------------------------------------------------------------------------
 237    6:00   0.10   48.5    37    0.3   258     1.2   870.6    0.00 
 237    6:10   0.13   50.1    34    0.3   250     1.4   870.6    0.00 
 237    6:20   0.16   50.6    41    0.4   243     1.4   870.7    0.00 
 237    6:30   0.19   52.1    32    0.2   273     1.1   870.7    0.00 
 237    6:40   0.23   51.7    33    1.4    21     3.0   870.7    0.00 
 237    6:50   0.26   51.8    33    0.9    24     1.8   870.6    0.00 
 237    7:00   0.29   53.6    30    0.9    28     1.8   870.5    0.00 
 237    7:10   0.33   55.5    27    0.4    36     1.4   870.5    0.00 
 237    7:20   0.36   58.3    24    0.2    37     1.7   870.6    0.00 
 237    7:30   0.40   59.7    23    0.0    38     0.7   870.6    0.00 
 237    7:40   0.43   61.5    23    0.0    39     0.7   870.6    0.00 
 237    7:50   0.46   62.8    23    0.6    60     2.2   870.6    0.00 
 237    8:00   0.49   64.2    22    0.6   131     2.7   870.7    0.00 
 237    8:10   0.52   66.0    19    0.8   157     2.3   870.8    0.00 
 237    8:20   0.55   68.0    17    0.1    77     2.7   870.8    0.00 
 237    8:30   0.59   67.2    18    3.5    33     6.2   870.9    0.00 
 237    8:40   0.62   67.3    19    3.2    41     5.2   871.0    0.00 
 237    8:50   0.65   68.0    20    3.6    25     5.5   871.0    0.00 
 237    9:00   0.68   69.1    19    3.3    40     5.0   871.0    0.00 
 237    9:10   0.70   70.3    18    3.1    40     6.1   871.0    0.00 
 237    9:20   0.72   71.2    17    3.0    25     5.2   871.0    0.00 
 237    9:30   0.75   72.3    16    2.2    37     4.5   870.9    0.00 
 237    9:40   0.77   73.6    15    2.0    52     4.8   870.8    0.00 
 237    9:50   0.79   74.0    13    3.2    17     6.5   870.8    0.00 
 237   10:00   0.81   74.9    13    2.7    72     5.7   870.8    0.00 
 237   10:10   0.83   76.5    12    2.9   168     5.5   870.7    0.00 
 237   10:20   0.85   76.9    11    3.4   142     5.7   870.6    0.00 
 237   10:30   0.87   77.1    11    3.4   126     7.3   870.5    0.00 
 237   10:40   0.88   77.6    11    3.3   127     8.0   870.4    0.00 
 237   10:50   0.89   77.6    10    4.0    65     6.9   870.3    0.00 
 237   11:00   0.91   78.4    10    5.2    63     8.5   870.2    0.00 
 237   11:10   0.91   78.0    10    4.9    40     8.8   870.1    0.00 
 237   11:20   0.92   79.1    10    2.9    73     6.3   869.9    0.00 
 237   11:30   0.93   79.9     9    3.9   156     7.8   869.8    0.00 
 237   11:40   0.93   81.6     9    3.3   140     8.0   869.7    0.00 
 237   11:50   0.94   80.6     9    4.9    96    10.0   869.5    0.00 
 237   12:00   0.94   80.8     9    4.6   119     9.9   869.4    0.00 
 237   12:10   0.94   80.4     9    5.3    97    10.6   869.3    0.00 
 237   12:20   0.93   80.7     9    4.8   340     9.8   869.2    0.00 
 237   12:30   0.92   81.2     9    4.8   306    10.5   869.1    0.00 
 237   12:40   0.92   81.5     9    4.1   250     9.9   869.0    0.00 
 237   12:50   0.91   82.2     8    6.3   286    26.9   868.9    0.00 
 237   13:00   0.90   82.5    10   11.1   259    19.0   868.8    0.00 
 237   13:10   0.89   81.6     9   10.0   282    19.9   868.8    0.00 
 237   13:20   0.88   82.1     9   10.1   280    18.7   868.6    0.00 
 237   13:30   0.86   82.7     9    9.1   260    16.9   868.5    0.00 
 237   13:40   0.84   82.8     9    9.3   291    14.9   868.4    0.00 
 237   13:50   0.83   83.7     9    5.5   271    19.8   868.3    0.00 
 237   14:00   0.81   83.7     8    5.9   256    13.6   868.2    0.00 
 237   14:10   0.79   83.5     9    4.9   247    12.9   868.0    0.00 
 237   14:20   0.76   83.1     9    7.0   225    14.4   867.9    0.00 
 237   14:30   0.74   83.5     8    9.3   272    20.0   867.8    0.00 
 237   14:40   0.72   83.9     8   10.6   277    21.4   867.7    0.00 
 237   14:50   0.69   83.1     8    5.7   278    14.4   867.7    0.00 
 237   15:00   0.66   83.6     8   10.6   279    17.2   867.5    0.00 
 237   15:10   0.63   83.9     8   10.5   292    16.9   867.5    0.00 
 237   15:20   0.60   83.6     8    6.9   270    11.8   867.5    0.00 
 237   15:30   0.57   83.8     8    5.6   287    11.8   867.3    0.00 
 237   15:40   0.54   83.1     8    4.9    11     9.3   867.3    0.00 
 237   15:50   0.51   83.4     8   10.5   330    16.4   867.2    0.00 
 237   16:00   0.48   83.0     8   10.4   346    16.8   867.2    0.00 
 237   16:10   0.44   83.0     8    7.6   348    13.1   867.2    0.00 
 237   16:20   0.41   83.3     8    7.4   317    15.3   867.2    0.00 
 237   16:30   0.38   83.3     8    5.4   293    14.2   867.1    0.00 
 237   16:40   0.34   83.3     8    5.4   314    14.4   867.0    0.00 
 237   16:50   0.31   82.9     8    8.6   332    20.1   866.9    0.00 
 237   17:00   0.27   82.6     8    6.0   358    10.6   866.9    0.00 
 237   17:10   0.24   82.5     9    7.2   321    10.7   866.7    0.00 
 237   17:20   0.21   82.3     9    8.5   312    13.5   866.7    0.00 
 237   17:30   0.18   82.3     9    6.1   294     9.2   866.7    0.00 
 237   17:40   0.15   82.1    10    5.6   303    10.0   866.7    0.00 
 237   17:50   0.12   80.3    10    6.7   339    11.5   866.7    0.00 
 237   18:00   0.09   79.4    10    4.6     9     5.9   866.8    0.00 
 237   18:10   0.02   76.9    12    4.1   341     6.0   866.8    0.00 
 237   18:20   0.01   73.4    13    4.2   319     6.5   866.8    0.00 
 237   18:30   0.01   71.0    14    4.6   311     6.2   866.8    0.00 
 237   18:40   0.01   68.2    18    4.6   303     5.3   866.8    0.00 
 237   18:50   0.00   67.3    17    4.8   309     7.6   866.7    0.00 
 237   19:00   0.00   69.7    15    6.2     2    10.4   866.9    0.00 
 237   19:10   0.00   67.5    15    4.7   332     6.4   867.0    0.00 
 237   19:20   0.00   68.4    16    5.5    32     8.0   867.2    0.00 
 237   19:30   0.00   70.4    14    5.1   357    11.2   867.2    0.00 
 237   19:40   0.00   69.1    15    5.4     8     9.1   867.4    0.00 
 237   19:50   0.00   67.2    16    5.9   360     7.9   867.5    0.00 
 237   20:00   0.00   65.1    23    6.6    19     8.8   867.6    0.00 
 237   20:10   0.00   64.9    19    6.6   346     9.9   867.7    0.00 
 237   20:20   0.00   65.6    18    8.7   332    11.7   867.8    0.00 
 237   20:30   0.00   65.4    18    9.3   332    12.5   867.9    0.00 
 237   20:40   0.00   65.2    18    9.7   337    13.2   867.9    0.00 
 237   20:50   0.00   65.4    17   10.4   339    14.4   867.9    0.00 
 237   21:00   0.00   66.2    17   11.0   333    16.7   867.9    0.00 
 237   21:10   0.00   64.8    18    8.6   339    12.1   867.9    0.00 
 237   21:20   0.00   64.6    18    9.4   336    13.0   867.9    0.00 
 237   21:30   0.00   65.3    18   10.2   331    15.2   867.9    0.00 
 237   21:40   0.00   65.2    18   10.5   329    13.9   867.9    0.00 
 237   21:50   0.00   65.6    17    9.8   335    14.6   867.9    0.00 
 237   22:00   0.00   63.8    19    8.4   339    10.7   867.9    0.00 
 237   22:10   0.00   63.7    19    8.3   343    11.2   867.9    0.00 
 237   22:20   0.00   63.8    19    8.7   348    12.7   868.0    0.00 
 237   22:30   0.00   63.6    20    7.2   349    12.3   868.1    0.00 
 237   22:40   0.00   60.7    22    6.2   329     8.3   868.1    0.00 
 237   22:50   0.00   60.4    22    6.9   336     9.2   868.1    0.00 
 237   23:00   0.00   61.4    22    7.4   343    14.6   868.1    0.00 
 237   23:10   0.00   62.0    21    7.2   355    12.1   868.3    0.00 
 237   23:20   0.00   61.2    22    5.8     0     8.7   868.3    0.00 
 237   23:30   0.00   61.6    22    5.8    10     9.5   868.4    0.00 
 237   23:40   0.00   60.3    25    6.2     7     9.4   868.4    0.00 
 237   23:50   0.00   59.6    25    7.8   352    11.2   868.3    0.00 
 238    0:00   0.00   58.2    26    3.7   310     6.6   868.5    0.00 
 238    0:10   0.00   58.6    26    1.2   321     4.5   868.6    0.00 
 238    0:20   0.00   58.6    26    4.6   326     8.3   868.4    0.00 
 238    0:30   0.00   59.2    26    6.8   340     9.1   868.3    0.00 
 238    0:40   0.00   60.0    26    6.0   338     8.6   868.3    0.00 
 238    0:50   0.00   58.7    27    5.9   326     9.1   868.2    0.00 
 238    1:00   0.00   59.5    26    5.4   332     7.7   868.1    0.00 
 238    1:10   0.00   58.4    26    6.0   316     8.6   868.1    0.00 
 238    1:20   0.00   57.0    28    5.3   319     7.7   868.0    0.00 
 238    1:30   0.00   56.9    27    5.7   326     7.5   868.0    0.00 
 238    1:40   0.00   56.3    28    5.9   328     8.3   868.0    0.00 
 238    1:50   0.00   56.0    29    6.4   333    10.6   868.0    0.00 
 238    2:00   0.00   56.0    30    5.6   339     7.7   868.0    0.00 
 238    2:10   0.00   54.8    31    5.6   336     8.8   867.9    0.00 
 238    2:20   0.00   55.6    29    6.6   328     8.9   867.9    0.00 
 238    2:30   0.00   55.4    29    6.2   337     8.3   867.9    0.00 
 238    2:40   0.00   55.1    29    6.5   328     9.3   867.9    0.00 
 238    2:50   0.00   55.1    29    6.6   327     8.9   867.8    0.00 
 238    3:00   0.00   56.0    28    7.5   322    10.9   867.8    0.00 
 238    3:10   0.00   56.0    28    7.0   329     9.4   867.7    0.00 
 238    3:20   0.00   55.9    28    6.5   329     9.5   867.7    0.00 
 238    3:30   0.00   56.1    28    7.0   344    12.6   867.7    0.00 
 238    3:40   0.00   56.1    29    7.4   343    11.0   867.7    0.00 
 238    3:50   0.00   54.9    31    8.1   335    11.0   867.8    0.00 
 238    4:00   100.00  99999.0   99999  99999.0   99999   99999.0   99999.0   99999.00 
 238    4:10   100.00  99999.0   99999  99999.0   99999   99999.0   99999.0   99999.00 
 238    4:20   100.00  99999.0   99999  99999.0   99999   99999.0   99999.0   99999.00 
 238    4:30   100.00  99999.0   99999  99999.0   99999   99999.0   99999.0   99999.00 
 238    4:40   100.00  99999.0   99999  99999.0   99999   99999.0   99999.0   99999.00 
 238    4:50   100.00  99999.0   99999  99999.0   99999   99999.0   99999.0   99999.00 
 238    5:00   0.00   52.3    33    6.1   340     8.7   868.1    0.00 
 238    5:10   100.00  99999.0   99999  99999.0   99999   99999.0   99999.0   99999.00 
 238    5:20   100.00  99999.0   99999  99999.0   99999   99999.0   99999.0   99999.00 
 238    5:30   100.00  99999.0   99999  99999.0   99999   99999.0   99999.0   99999.00 
 238    5:40   100.00  99999.0   99999  99999.0   99999   99999.0   99999.0   99999.00 
 238    5:50   0.07   54.0    31    4.8   340     5.6   868.3    0.00 

Return to Paradise Valley graphs page.


Western Regional Climate Center,wrcc@dri.edu